createdAt,value
2023-03-10T00:00:10.930Z,93992.56
2023-03-10T00:02:13.681Z,93981.53
2023-03-10T00:04:16.578Z,93976.47
2023-03-10T00:06:22.272Z,93949.03
2023-03-10T00:08:27.098Z,93834.16
2023-03-10T00:10:30.277Z,93968.50
2023-03-10T00:12:33.081Z,93971.41
2023-03-10T00:14:36.389Z,93944.91
2023-03-10T00:16:40.726Z,93957.06
2023-03-10T00:18:43.514Z,93951.63
2023-03-10T00:20:46.260Z,93902.97
2023-03-10T00:22:49.474Z,93950.56
2023-03-10T00:24:52.236Z,93943.88
2023-03-10T00:26:55.006Z,93946.56
2023-03-10T00:28:57.932Z,93951.94
2023-03-10T00:31:02.504Z,93939.69
2023-03-10T00:33:06.973Z,93939.25
2023-03-10T00:35:10.154Z,93933.81
2023-03-10T00:37:12.888Z,93917.75
2023-03-10T00:39:15.758Z,93934.47
2023-03-10T00:41:21.550Z,93926.50
2023-03-10T00:43:24.558Z,93928.75
2023-03-10T00:45:27.716Z,93908.53
2023-03-10T00:47:30.488Z,93935.69
2023-03-10T00:49:34.668Z,93929.25
2023-03-10T00:51:38.499Z,93928.66
2023-03-10T00:53:41.955Z,93919.34
2023-03-10T00:55:45.139Z,93906.38
2023-03-10T00:57:47.961Z,93918.53
2023-03-10T00:59:51.866Z,93921.28
2023-03-10T01:01:55.503Z,93907.97
2023-03-10T01:04:00.323Z,93876.25
2023-03-10T01:06:04.694Z,93880.31
2023-03-10T01:08:07.501Z,93898.03
2023-03-10T01:10:11.511Z,93830.91
2023-03-10T01:12:14.658Z,93896.44
2023-03-10T01:14:18.255Z,93870.53
2023-03-10T01:16:21.115Z,93878.72
2023-03-10T01:18:24.167Z,93900.00
2023-03-10T01:20:26.922Z,93896.81
2023-03-10T01:22:31.089Z,93893.41
2023-03-10T01:24:33.945Z,93782.69
2023-03-10T01:26:36.770Z,93895.50
2023-03-10T01:28:39.800Z,93899.84
2023-03-10T01:30:43.673Z,93902.28
2023-03-10T01:32:47.138Z,93896.78
2023-03-10T01:34:50.396Z,93893.75
2023-03-10T01:36:53.223Z,93877.03
2023-03-10T01:38:58.560Z,93890.00
2023-03-10T01:41:01.383Z,93887.09
2023-03-10T01:43:31.544Z,93870.88
2023-03-10T01:46:11.767Z,93890.00
2023-03-10T01:48:16.125Z,93895.91
2023-03-10T01:50:20.078Z,93880.66
2023-03-10T01:52:25.709Z,93879.56
2023-03-10T01:54:34.764Z,93897.97
2023-03-10T01:56:38.651Z,93866.06
2023-03-10T01:58:45.387Z,93873.16
2023-03-10T02:00:48.392Z,93856.59
2023-03-10T02:02:56.112Z,93864.84
2023-03-10T02:04:59.320Z,93854.19
2023-03-10T02:07:08.598Z,93841.31
2023-03-10T02:09:13.019Z,93846.88
2023-03-10T02:11:17.539Z,93849.50
2023-03-10T02:13:20.384Z,93811.44
2023-03-10T02:15:23.598Z,93838.94
2023-03-10T02:17:27.934Z,93841.38
2023-03-10T02:19:44.791Z,93833.72
2023-03-10T02:21:53.552Z,93841.59
2023-03-10T02:24:04.404Z,93819.53
2023-03-10T02:26:15.466Z,93768.88
2023-03-10T02:28:19.901Z,93843.78
2023-03-10T02:30:25.673Z,93758.28
2023-03-10T02:32:31.793Z,93841.59
2023-03-10T02:34:35.919Z,93844.72
2023-03-10T02:36:38.665Z,93842.91
2023-03-10T02:38:41.467Z,93782.59
2023-03-10T02:40:47.705Z,93846.66
2023-03-10T02:42:54.321Z,93808.09
2023-03-10T02:44:58.548Z,93814.47
2023-03-10T02:47:01.372Z,93828.00
2023-03-10T02:49:06.276Z,93824.81
2023-03-10T02:51:18.348Z,93816.06
2023-03-10T02:53:24.787Z,93782.03
2023-03-10T02:55:27.566Z,93815.06
2023-03-10T02:57:30.489Z,93823.94
2023-03-10T02:59:33.333Z,93822.06
2023-03-10T03:01:37.822Z,93766.25
2023-03-10T03:03:42.148Z,93813.31
2023-03-10T03:05:46.231Z,93826.31
2023-03-10T03:07:49.277Z,93812.50
2023-03-10T03:09:52.138Z,93809.75
2023-03-10T03:11:54.931Z,93804.91
2023-03-10T03:13:57.865Z,93665.63
2023-03-10T03:16:01.369Z,93787.84
2023-03-10T03:18:05.691Z,93790.00
2023-03-10T03:20:14.413Z,93779.94
2023-03-10T03:22:19.101Z,93789.22
2023-03-10T03:24:22.037Z,93799.34
2023-03-10T03:26:27.325Z,93796.97
2023-03-10T03:28:36.106Z,93797.53
2023-03-10T03:30:40.127Z,93772.38
2023-03-10T03:32:43.855Z,93780.94
2023-03-10T03:34:49.145Z,93779.88
2023-03-10T03:36:53.062Z,93718.81
2023-03-10T03:39:02.211Z,93767.63
2023-03-10T03:41:07.878Z,93762.56
2023-03-10T03:43:13.696Z,93773.50
2023-03-10T03:45:18.884Z,93761.50
2023-03-10T03:47:22.065Z,93759.59
2023-03-10T03:49:24.834Z,93764.97
2023-03-10T03:51:28.964Z,93761.97
2023-03-10T03:53:34.237Z,93767.06
2023-03-10T03:55:38.008Z,93721.22
2023-03-10T03:57:42.757Z,93740.81
2023-03-10T03:59:45.551Z,93738.00
2023-03-10T04:01:48.367Z,93741.47
2023-03-10T04:03:51.469Z,93742.75
2023-03-10T04:05:54.477Z,93751.06
2023-03-10T04:07:59.018Z,93715.50
2023-03-10T04:10:05.137Z,93746.88
2023-03-10T04:12:09.320Z,93729.16
2023-03-10T04:14:12.787Z,93738.06
2023-03-10T04:16:15.610Z,93735.09
2023-03-10T04:18:20.235Z,93722.22
2023-03-10T04:20:24.344Z,93732.94
2023-03-10T04:22:27.284Z,93739.38
2023-03-10T04:24:32.349Z,93634.38
2023-03-10T04:26:35.702Z,93708.50
2023-03-10T04:28:40.017Z,93722.22
2023-03-10T04:30:45.195Z,93660.94
2023-03-10T04:32:49.444Z,93316.16
2023-03-10T04:34:53.659Z,93672.69
2023-03-10T04:36:56.471Z,93727.38
2023-03-10T04:38:59.432Z,93725.72
2023-03-10T04:41:09.431Z,93698.00
2023-03-10T04:43:16.195Z,93704.31
2023-03-10T04:45:20.722Z,93702.41
2023-03-10T04:47:23.542Z,93714.50
2023-03-10T04:49:26.838Z,93664.19
2023-03-10T04:51:30.107Z,93705.59
2023-03-10T04:53:34.279Z,93711.66
2023-03-10T04:55:37.262Z,93715.22
2023-03-10T04:57:42.953Z,93705.66
2023-03-10T04:59:45.825Z,93707.25
2023-03-10T05:01:49.124Z,93705.66
2023-03-10T05:03:51.932Z,93701.03
2023-03-10T05:05:54.676Z,93695.19
2023-03-10T05:07:57.555Z,93687.06
2023-03-10T05:10:01.657Z,93693.00
2023-03-10T05:12:06.967Z,93685.34
2023-03-10T05:14:13.694Z,93689.63
2023-03-10T05:16:18.268Z,93680.94
2023-03-10T05:18:22.300Z,93673.13
2023-03-10T05:20:26.501Z,93671.53
2023-03-10T05:22:29.358Z,93682.50
2023-03-10T05:24:32.514Z,93676.09
2023-03-10T05:26:35.926Z,93675.22
2023-03-10T05:28:39.954Z,93684.78
2023-03-10T05:30:45.373Z,93684.47
2023-03-10T05:32:48.218Z,93683.41
2023-03-10T05:34:51.231Z,93678.25
2023-03-10T05:36:54.393Z,93653.91
2023-03-10T05:38:57.194Z,93682.22
2023-03-10T05:40:59.947Z,93670.31
2023-03-10T05:43:02.695Z,93691.50
2023-03-10T05:45:06.599Z,93684.56
2023-03-10T05:47:11.141Z,93685.34
2023-03-10T05:49:13.888Z,93673.34
2023-03-10T05:51:16.684Z,93674.44
2023-03-10T05:53:19.895Z,93679.50
2023-03-10T05:55:24.012Z,93682.50
2023-03-10T05:57:27.859Z,93703.94
2023-03-10T05:59:30.594Z,93692.50
2023-03-10T06:01:33.519Z,93689.63
2023-03-10T06:03:38.808Z,93693.28
2023-03-10T06:05:41.598Z,93695.03
2023-03-10T06:07:44.343Z,93678.47
2023-03-10T06:09:47.175Z,93680.00
2023-03-10T06:11:49.880Z,93669.16
2023-03-10T06:13:52.624Z,93648.75
2023-03-10T06:15:57.361Z,93653.09
2023-03-10T06:18:00.220Z,93657.81
2023-03-10T06:20:05.271Z,93647.84
2023-03-10T06:22:07.983Z,93653.91
2023-03-10T06:24:10.746Z,93615.38
2023-03-10T06:26:15.560Z,93633.72
2023-03-10T06:28:18.321Z,93635.09
2023-03-10T06:30:21.751Z,93624.41
2023-03-10T06:32:24.580Z,93618.47
2023-03-10T06:34:27.387Z,93618.69
2023-03-10T06:36:32.642Z,93542.56
2023-03-10T06:38:35.364Z,93602.81
2023-03-10T06:40:38.068Z,93590.41
2023-03-10T06:42:41.091Z,93617.44
2023-03-10T06:44:43.834Z,93613.41
2023-03-10T06:46:46.734Z,93606.88
2023-03-10T06:48:50.488Z,93619.56
2023-03-10T06:50:53.196Z,93606.78
2023-03-10T06:52:57.218Z,93619.78
2023-03-10T06:55:00.139Z,93611.97
2023-03-10T06:57:02.864Z,93617.50
2023-03-10T06:59:05.560Z,93614.22
2023-03-10T07:01:09.473Z,93571.91
2023-03-10T07:03:12.780Z,93603.34
2023-03-10T07:05:15.517Z,93574.34
2023-03-10T07:07:18.181Z,93602.63
2023-03-10T07:09:22.182Z,93598.56
2023-03-10T07:11:26.642Z,93600.16
2023-03-10T07:13:29.360Z,93596.59
2023-03-10T07:15:32.187Z,93571.22
2023-03-10T07:17:34.927Z,93503.50
2023-03-10T07:19:38.043Z,93603.34
2023-03-10T07:21:40.750Z,93598.00
2023-03-10T07:23:43.543Z,93605.72
2023-03-10T07:25:47.652Z,93598.69
2023-03-10T07:27:50.490Z,93603.34
2023-03-10T07:29:53.214Z,93608.31
2023-03-10T07:31:56.287Z,93604.56
2023-03-10T07:33:58.999Z,93606.63
2023-03-10T07:36:06.349Z,93523.56
2023-03-10T07:38:09.629Z,93608.72
2023-03-10T07:40:13.227Z,93606.53
2023-03-10T07:42:17.298Z,93611.91
2023-03-10T07:44:20.014Z,93623.28
2023-03-10T07:46:23.127Z,93634.50
2023-03-10T07:48:25.939Z,93585.59
2023-03-10T07:50:28.851Z,93654.50
2023-03-10T07:52:31.620Z,93658.47
2023-03-10T07:54:34.350Z,93659.69
2023-03-10T07:56:37.035Z,93662.84
2023-03-10T07:58:41.918Z,93628.44
2023-03-10T08:00:44.656Z,93661.72
2023-03-10T08:02:47.376Z,93666.00
2023-03-10T08:04:50.129Z,93660.16
2023-03-10T08:06:52.893Z,93663.53
2023-03-10T08:08:57.593Z,93654.03
2023-03-10T08:11:04.713Z,93659.69
2023-03-10T08:13:07.391Z,93661.75
2023-03-10T08:15:13.373Z,93662.38
2023-03-10T08:17:16.355Z,93648.91
2023-03-10T08:19:19.184Z,93672.09
2023-03-10T08:21:22.269Z,93681.31
2023-03-10T08:23:25.775Z,93662.47
2023-03-10T08:25:28.552Z,93611.41
2023-03-10T08:27:31.332Z,93646.81
2023-03-10T08:29:34.197Z,93576.88
2023-03-10T08:31:38.387Z,93653.53
2023-03-10T08:33:42.425Z,93655.34
2023-03-10T08:35:45.233Z,93656.34
2023-03-10T08:37:47.966Z,93660.31
2023-03-10T08:39:53.510Z,93669.44
2023-03-10T08:41:56.894Z,93648.41
2023-03-10T08:44:00.532Z,93595.03
2023-03-10T08:46:03.460Z,93668.16
2023-03-10T08:48:07.673Z,93666.34
2023-03-10T08:50:12.849Z,93674.22
2023-03-10T08:52:15.697Z,93665.41
2023-03-10T08:54:21.351Z,93670.66
2023-03-10T08:56:24.826Z,93675.81
2023-03-10T08:58:27.636Z,93678.28
2023-03-10T09:00:30.354Z,93692.31
2023-03-10T09:02:33.628Z,93683.66
2023-03-10T09:04:37.742Z,93690.09
2023-03-10T09:06:40.596Z,93685.34
2023-03-10T09:08:44.210Z,93686.25
2023-03-10T09:10:47.410Z,93696.88
2023-03-10T09:12:52.624Z,93698.84
2023-03-10T09:15:01.672Z,93698.06
2023-03-10T09:17:04.798Z,93694.06
2023-03-10T09:19:07.602Z,93691.91
2023-03-10T09:21:13.242Z,93693.09
2023-03-10T09:23:17.484Z,93690.91
2023-03-10T09:25:20.415Z,93698.56
2023-03-10T09:27:23.141Z,93702.03
2023-03-10T09:29:42.218Z,93724.28
2023-03-10T09:31:48.241Z,93706.78
2023-03-10T09:33:51.272Z,93703.59
2023-03-10T09:36:08.425Z,93705.88
2023-03-10T09:38:13.281Z,93728.56
2023-03-10T09:40:18.950Z,93721.63
2023-03-10T09:42:38.836Z,93697.72
2023-03-10T09:44:48.285Z,93726.81
2023-03-10T09:47:05.746Z,93698.84
2023-03-10T09:49:15.319Z,93706.47
2023-03-10T09:51:22.528Z,93706.78
2023-03-10T09:53:49.725Z,93713.34
2023-03-10T09:55:53.176Z,93709.78
2023-03-10T09:57:57.836Z,93722.19
2023-03-10T10:00:05.332Z,93716.53
2023-03-10T10:02:17.255Z,93678.78
2023-03-10T10:04:23.882Z,93701.84
2023-03-10T10:06:29.024Z,93688.81
2023-03-10T10:08:49.030Z,93715.94
2023-03-10T10:10:56.948Z,93696.16
2023-03-10T10:13:04.183Z,93705.81
2023-03-10T10:15:16.193Z,93692.88
2023-03-10T10:17:27.549Z,93698.63
2023-03-10T10:19:30.423Z,93707.19
2023-03-10T10:21:42.558Z,93695.06
2023-03-10T10:23:50.614Z,93660.72
2023-03-10T10:25:53.452Z,93699.84
2023-03-10T10:28:03.152Z,93707.19
2023-03-10T10:30:30.052Z,93703.97
2023-03-10T10:32:32.964Z,93664.66
2023-03-10T10:34:37.098Z,93722.47
2023-03-10T10:36:51.962Z,93701.22
2023-03-10T10:38:57.597Z,93722.38
2023-03-10T10:41:06.987Z,93711.16
2023-03-10T10:43:17.654Z,93719.50
2023-03-10T10:45:27.727Z,93718.91
2023-03-10T10:47:32.499Z,93705.19
2023-03-10T10:49:37.579Z,93716.91
2023-03-10T10:51:40.685Z,93709.38
2023-03-10T10:53:43.825Z,93696.56
2023-03-10T10:56:00.207Z,93723.06
2023-03-10T10:58:06.579Z,93719.91
2023-03-10T11:00:25.129Z,93716.72
2023-03-10T11:02:32.648Z,93735.88
2023-03-10T11:04:44.003Z,93718.50
2023-03-10T11:06:47.045Z,93711.84
2023-03-10T11:08:52.116Z,93711.75
2023-03-10T11:11:00.933Z,93726.41
2023-03-10T11:13:08.091Z,93726.25
2023-03-10T11:15:20.709Z,93706.50
2023-03-10T11:17:28.535Z,93641.69
2023-03-10T11:19:38.096Z,93740.16
2023-03-10T11:21:44.745Z,93735.19
2023-03-10T11:23:55.725Z,93684.34
2023-03-10T11:26:05.877Z,93743.94
2023-03-10T11:28:27.248Z,93739.97
2023-03-10T11:30:33.402Z,93735.19
2023-03-10T11:32:47.266Z,93684.56
2023-03-10T11:34:53.850Z,93753.16
2023-03-10T11:37:04.959Z,93751.69
2023-03-10T11:39:18.056Z,93760.63
2023-03-10T11:41:27.193Z,93761.13
2023-03-10T11:43:38.111Z,93756.03
2023-03-10T11:45:48.455Z,93769.13
2023-03-10T11:48:02.029Z,93742.94
2023-03-10T11:50:19.134Z,93746.13
2023-03-10T11:52:24.324Z,93759.81
2023-03-10T11:54:31.065Z,93754.06
2023-03-10T11:56:35.130Z,93756.75
2023-03-10T11:58:46.296Z,93744.13
2023-03-10T12:00:52.594Z,93746.31
2023-03-10T12:03:08.420Z,93745.72
2023-03-10T12:05:21.089Z,93750.41
2023-03-10T12:07:28.281Z,93755.75
2023-03-10T12:09:42.048Z,93747.72
2023-03-10T12:11:47.027Z,93760.31
2023-03-10T12:13:54.090Z,93742.63
2023-03-10T12:15:59.853Z,93751.09
2023-03-10T12:18:05.309Z,93764.78
2023-03-10T12:20:28.231Z,93740.56
2023-03-10T12:22:39.028Z,93723.56
2023-03-10T12:24:46.465Z,93743.84
2023-03-10T12:27:01.255Z,93743.31
2023-03-10T12:29:31.593Z,93649.00
2023-03-10T12:31:47.530Z,93749.81
2023-03-10T12:33:54.847Z,93722.84
2023-03-10T12:36:02.309Z,93765.06
2023-03-10T12:38:36.455Z,93760.59
2023-03-10T12:40:49.225Z,93756.41
2023-03-10T12:42:53.265Z,93768.31
2023-03-10T12:45:07.736Z,93766.50
2023-03-10T12:47:23.612Z,93770.34
2023-03-10T12:49:36.764Z,93774.97
2023-03-10T12:51:44.056Z,93764.63
2023-03-10T12:53:53.815Z,93758.44
2023-03-10T12:56:36.710Z,93781.97
2023-03-10T12:58:46.797Z,93758.41
2023-03-10T13:00:51.572Z,93758.53
2023-03-10T13:03:00.331Z,93757.81
2023-03-10T13:05:07.044Z,93719.75
2023-03-10T13:07:15.986Z,93763.56
2023-03-10T13:09:27.141Z,93760.13
2023-03-10T13:11:36.432Z,93748.78
2023-03-10T13:13:41.343Z,93755.22
2023-03-10T13:15:44.987Z,93746.00
2023-03-10T13:17:47.650Z,93749.66
2023-03-10T13:19:59.283Z,93734.22
2023-03-10T13:22:04.736Z,93744.59
2023-03-10T13:24:24.102Z,93753.13
2023-03-10T13:26:27.712Z,93757.44
2023-03-10T13:28:34.494Z,93748.78
2023-03-10T13:30:38.672Z,93757.91
2023-03-10T13:32:41.955Z,93762.56
2023-03-10T13:34:44.732Z,93766.91
2023-03-10T13:36:48.230Z,93769.97
2023-03-10T13:38:53.009Z,93781.00
2023-03-10T13:41:02.151Z,93785.25
2023-03-10T13:43:07.228Z,93761.78
2023-03-10T13:45:22.422Z,93751.03
2023-03-10T13:47:28.076Z,93778.94
2023-03-10T13:49:34.163Z,93782.69
2023-03-10T13:51:38.366Z,93799.34
2023-03-10T13:53:41.137Z,93766.56
2023-03-10T13:55:43.848Z,93777.94
2023-03-10T13:57:49.193Z,93806.13
2023-03-10T13:59:53.267Z,93784.19
2023-03-10T14:01:58.887Z,93792.19
2023-03-10T14:04:08.559Z,93782.78
2023-03-10T14:06:13.730Z,93770.06
2023-03-10T14:08:22.335Z,93781.00
2023-03-10T14:10:25.277Z,93766.06
2023-03-10T14:12:39.032Z,93784.00
2023-03-10T14:14:42.731Z,93780.03
2023-03-10T14:16:51.116Z,93732.50
2023-03-10T14:18:53.877Z,93792.19
2023-03-10T14:20:58.036Z,93779.28
2023-03-10T14:23:01.702Z,93776.06
2023-03-10T14:25:11.148Z,93741.75
2023-03-10T14:27:13.989Z,93790.13
2023-03-10T14:29:18.550Z,93710.16
2023-03-10T14:31:24.452Z,93798.34
2023-03-10T14:33:27.246Z,93790.25
2023-03-10T14:35:31.008Z,93803.13
2023-03-10T14:37:35.017Z,93803.97
2023-03-10T14:39:37.781Z,93821.56
2023-03-10T14:41:40.508Z,93800.50
2023-03-10T14:43:43.935Z,93839.88
2023-03-10T14:45:48.649Z,93858.09
2023-03-10T14:47:52.287Z,93864.38
2023-03-10T14:49:55.480Z,93902.44
2023-03-10T14:51:58.182Z,93910.72
2023-03-10T14:54:02.607Z,93881.41
2023-03-10T14:56:05.811Z,93920.00
2023-03-10T14:58:09.707Z,93921.47
2023-03-10T15:00:14.795Z,93903.97
2023-03-10T15:02:22.018Z,93930.72
2023-03-10T15:04:24.776Z,93892.00
2023-03-10T15:06:27.614Z,93910.81
2023-03-10T15:08:30.977Z,93939.84
2023-03-10T15:10:38.519Z,93898.78
2023-03-10T15:12:41.937Z,93917.63
2023-03-10T15:14:51.729Z,93932.28
2023-03-10T15:16:55.434Z,93950.19
2023-03-10T15:18:58.166Z,93967.41
2023-03-10T15:21:02.416Z,93957.53
2023-03-10T15:23:05.220Z,93974.34
2023-03-10T15:25:09.126Z,93996.31
2023-03-10T15:27:14.239Z,94021.44
2023-03-10T15:29:18.032Z,93994.28
2023-03-10T15:31:21.042Z,93969.19
2023-03-10T15:33:23.787Z,93984.44
2023-03-10T15:35:28.093Z,93972.63
2023-03-10T15:37:30.863Z,93974.72
2023-03-10T15:39:36.482Z,93967.69
2023-03-10T15:41:40.638Z,93968.78
2023-03-10T15:43:44.693Z,93964.06
2023-03-10T15:45:49.246Z,93981.81
2023-03-10T15:47:52.067Z,93973.44
2023-03-10T15:49:54.794Z,94025.41
2023-03-10T15:51:57.488Z,94009.78
2023-03-10T15:54:00.263Z,93895.31
2023-03-10T15:56:06.525Z,94005.41
2023-03-10T15:58:09.593Z,94011.56
2023-03-10T16:00:16.851Z,94008.59
2023-03-10T16:02:19.655Z,94007.31
2023-03-10T16:04:23.633Z,94033.97
2023-03-10T16:06:27.460Z,94033.72
2023-03-10T16:08:32.549Z,94042.41
2023-03-10T16:10:35.925Z,94017.59
2023-03-10T16:12:38.791Z,94044.81
2023-03-10T16:14:41.538Z,94056.06
2023-03-10T16:16:45.652Z,94053.72
2023-03-10T16:18:48.933Z,94038.00
2023-03-10T16:20:59.207Z,94026.28
2023-03-10T16:23:01.951Z,94040.16
2023-03-10T16:25:05.041Z,94022.56
2023-03-10T16:27:08.270Z,94012.44
2023-03-10T16:29:11.054Z,94054.28
2023-03-10T16:31:16.011Z,94002.56
2023-03-10T16:33:20.140Z,93987.84
2023-03-10T16:35:22.846Z,94033.75
2023-03-10T16:37:27.363Z,94038.56
2023-03-10T16:39:31.038Z,94074.25
2023-03-10T16:41:33.878Z,94037.22
2023-03-10T16:43:36.739Z,94057.16
2023-03-10T16:45:39.500Z,94067.28
2023-03-10T16:47:43.890Z,93954.22
2023-03-10T16:49:48.018Z,94091.78
2023-03-10T16:51:51.034Z,94024.84
2023-03-10T16:53:56.188Z,94099.78
2023-03-10T16:56:05.582Z,94115.00
2023-03-10T16:58:08.961Z,94102.44
2023-03-10T17:00:13.391Z,94061.25
2023-03-10T17:02:16.822Z,94113.78
2023-03-10T17:04:20.670Z,94053.41
2023-03-10T17:06:26.908Z,94140.88
2023-03-10T17:08:29.662Z,94169.03
2023-03-10T17:10:33.420Z,93963.59
2023-03-10T17:12:36.118Z,93928.56
2023-03-10T17:14:38.859Z,94130.97
2023-03-10T17:16:42.426Z,93924.03
2023-03-10T17:18:45.787Z,94103.72
2023-03-10T17:20:48.480Z,94108.22
2023-03-10T17:22:54.660Z,94072.34
2023-03-10T17:24:59.523Z,93956.69
2023-03-10T17:27:02.544Z,94124.47
2023-03-10T17:29:06.224Z,94129.06
2023-03-10T17:31:09.344Z,94118.22
2023-03-10T17:33:12.285Z,94136.41
2023-03-10T17:35:15.013Z,94127.59
2023-03-10T17:37:17.736Z,94098.09
2023-03-10T17:39:23.655Z,94103.94
2023-03-10T17:41:27.369Z,94090.03
2023-03-10T17:43:34.514Z,94094.66
2023-03-10T17:45:37.474Z,94102.63
2023-03-10T17:47:41.099Z,94104.19
2023-03-10T17:49:43.944Z,94099.44
2023-03-10T17:51:47.224Z,94100.78
2023-03-10T17:53:50.688Z,94065.31
2023-03-10T17:55:55.183Z,94153.00
2023-03-10T17:57:58.086Z,94136.59
2023-03-10T18:00:00.806Z,94122.56
2023-03-10T18:02:03.585Z,94128.94
2023-03-10T18:04:06.368Z,94168.06
2023-03-10T18:06:14.248Z,94149.59
2023-03-10T18:08:17.025Z,94148.41
2023-03-10T18:10:20.075Z,94191.91
2023-03-10T18:12:24.186Z,94198.72
2023-03-10T18:14:26.955Z,94200.00
2023-03-10T18:16:32.252Z,94213.53
2023-03-10T18:18:35.408Z,94212.28
2023-03-10T18:20:38.519Z,94202.56
2023-03-10T18:22:41.232Z,94194.41
2023-03-10T18:24:44.105Z,94204.13
2023-03-10T18:26:47.011Z,94197.81
2023-03-10T18:28:51.092Z,94116.03
2023-03-10T18:30:53.848Z,94188.53
2023-03-10T18:32:56.543Z,94170.81
2023-03-10T18:34:59.582Z,94195.19
2023-03-10T18:37:02.348Z,94184.97
2023-03-10T18:39:07.265Z,94186.63
2023-03-10T18:41:10.185Z,94184.47
2023-03-10T18:43:12.966Z,94202.53
2023-03-10T18:45:17.064Z,94215.91
2023-03-10T18:47:19.904Z,94207.53
2023-03-10T18:49:22.682Z,94210.59
2023-03-10T18:51:27.117Z,94222.41
2023-03-10T18:53:30.270Z,94228.19
2023-03-10T18:55:33.008Z,94227.94
2023-03-10T18:57:35.910Z,94127.72
2023-03-10T18:59:38.786Z,94075.72
2023-03-10T19:01:42.897Z,94213.56
2023-03-10T19:03:45.680Z,94246.81
2023-03-10T19:05:53.557Z,94225.81
2023-03-10T19:07:56.486Z,94200.91
2023-03-10T19:09:59.348Z,94282.00
2023-03-10T19:12:02.075Z,94227.16
2023-03-10T19:14:06.607Z,94246.91
2023-03-10T19:16:10.554Z,94117.09
2023-03-10T19:18:14.703Z,94181.78
2023-03-10T19:20:18.615Z,94123.78
2023-03-10T19:22:21.369Z,94237.50
2023-03-10T19:24:24.099Z,94260.75
2023-03-10T19:26:26.904Z,94268.16
2023-03-10T19:28:29.835Z,94265.25
2023-03-10T19:30:32.790Z,94256.59
2023-03-10T19:32:35.608Z,94257.47
2023-03-10T19:34:39.742Z,94252.91
2023-03-10T19:36:42.537Z,94242.34
2023-03-10T19:38:45.866Z,94264.81
2023-03-10T19:40:48.629Z,94272.66
2023-03-10T19:42:51.422Z,94249.88
2023-03-10T19:44:54.300Z,94255.31
2023-03-10T19:46:57.158Z,94226.78
2023-03-10T19:48:59.998Z,94289.72
2023-03-10T19:51:05.503Z,94297.44
2023-03-10T19:53:08.312Z,94269.75
2023-03-10T19:55:16.340Z,94287.22
2023-03-10T19:57:19.318Z,94206.63
2023-03-10T19:59:22.090Z,94347.22
2023-03-10T20:01:26.888Z,94335.53
2023-03-10T20:03:31.784Z,94341.53
2023-03-10T20:05:34.552Z,94351.81
2023-03-10T20:07:39.403Z,94371.88
2023-03-10T20:09:42.258Z,94392.94
2023-03-10T20:11:45.140Z,94402.59
2023-03-10T20:13:48.494Z,94415.97
2023-03-10T20:15:51.227Z,94434.13
2023-03-10T20:17:54.349Z,93899.47
2023-03-10T20:19:57.173Z,94424.97
2023-03-10T20:22:01.275Z,94411.94
2023-03-10T20:24:06.225Z,94447.63
2023-03-10T20:26:10.941Z,94421.66
2023-03-10T20:28:14.364Z,94452.28
2023-03-10T20:30:20.403Z,94478.13
2023-03-10T20:32:23.192Z,94473.75
2023-03-10T20:34:25.944Z,94457.63
2023-03-10T20:36:28.704Z,94487.88
2023-03-10T20:38:31.449Z,94467.69
2023-03-10T20:40:38.347Z,94496.63
2023-03-10T20:42:41.130Z,94370.53
2023-03-10T20:44:43.837Z,94482.19
2023-03-10T20:46:47.226Z,94490.19
2023-03-10T20:48:50.782Z,94504.63
2023-03-10T20:50:55.138Z,94422.22
2023-03-10T20:52:58.270Z,94448.38
2023-03-10T20:55:00.957Z,94497.03
2023-03-10T20:57:05.179Z,94374.28
2023-03-10T20:59:07.929Z,94486.72
2023-03-10T21:01:16.638Z,94547.41
2023-03-10T21:03:21.329Z,94572.75
2023-03-10T21:05:24.798Z,94568.38
2023-03-10T21:07:27.546Z,94584.41
2023-03-10T21:09:30.552Z,94533.63
2023-03-10T21:11:33.863Z,94560.22
2023-03-10T21:13:37.979Z,94614.59
2023-03-10T21:15:41.251Z,94612.41
2023-03-10T21:17:44.747Z,94514.03
2023-03-10T21:19:47.523Z,94638.22
2023-03-10T21:21:50.297Z,94589.72
2023-03-10T21:23:53.075Z,94634.88
2023-03-10T21:25:55.821Z,94641.91
2023-03-10T21:27:59.729Z,94670.50
2023-03-10T21:30:05.953Z,94643.53
2023-03-10T21:32:08.991Z,94616.91
2023-03-10T21:34:11.900Z,94518.72
2023-03-10T21:36:16.327Z,94655.25
2023-03-10T21:38:19.037Z,94674.28
2023-03-10T21:40:24.306Z,94662.06
2023-03-10T21:42:27.206Z,94656.19
2023-03-10T21:44:30.761Z,94655.69
2023-03-10T21:46:34.934Z,94519.50
2023-03-10T21:48:37.752Z,94547.38
2023-03-10T21:50:40.464Z,94692.59
2023-03-10T21:52:43.897Z,94681.19
2023-03-10T21:54:46.889Z,94673.47
2023-03-10T21:56:49.627Z,94687.19
2023-03-10T21:58:52.394Z,94686.28
2023-03-10T22:00:56.312Z,94573.81
2023-03-10T22:03:00.720Z,94705.28
2023-03-10T22:05:03.951Z,94711.97
2023-03-10T22:07:06.705Z,94708.28
2023-03-10T22:09:09.472Z,94705.28
2023-03-10T22:11:13.636Z,94724.16
2023-03-10T22:13:16.422Z,94706.44
2023-03-10T22:15:21.439Z,94713.84
2023-03-10T22:17:24.998Z,94720.84
2023-03-10T22:19:29.155Z,94711.34
2023-03-10T22:21:32.012Z,94722.03
2023-03-10T22:23:34.801Z,94727.59
2023-03-10T22:25:37.549Z,94729.56
2023-03-10T22:27:40.286Z,94733.59
2023-03-10T22:29:43.200Z,94742.13
2023-03-10T22:31:45.899Z,94734.19
2023-03-10T22:33:49.182Z,94729.56
2023-03-10T22:35:53.315Z,94728.72
2023-03-10T22:37:56.149Z,94758.47
2023-03-10T22:39:59.228Z,94736.31
2023-03-10T22:42:02.003Z,94770.53
2023-03-10T22:44:05.082Z,94661.41
2023-03-10T22:46:10.115Z,94777.41
2023-03-10T22:48:12.918Z,94769.78
2023-03-10T22:50:17.836Z,94761.69
2023-03-10T22:52:22.143Z,94774.47
2023-03-10T22:54:25.042Z,94722.88
2023-03-10T22:56:30.416Z,94711.34
2023-03-10T22:58:33.685Z,94770.06
2023-03-10T23:00:37.774Z,94787.72
2023-03-10T23:02:40.663Z,94768.53
2023-03-10T23:04:44.435Z,94709.22
2023-03-10T23:06:47.211Z,94782.88
2023-03-10T23:08:51.898Z,94786.63
2023-03-10T23:10:54.751Z,94779.69
2023-03-10T23:12:59.867Z,94789.34
2023-03-10T23:15:07.057Z,94805.78
2023-03-10T23:17:12.175Z,94801.09
2023-03-10T23:19:14.964Z,94801.81
2023-03-10T23:21:17.739Z,94798.78
2023-03-10T23:23:20.592Z,94788.59
2023-03-10T23:25:26.961Z,94800.72
2023-03-10T23:27:29.767Z,94817.09
2023-03-10T23:29:32.524Z,94807.31
2023-03-10T23:31:35.292Z,94803.44
2023-03-10T23:33:38.048Z,94799.91
2023-03-10T23:35:41.016Z,94780.94
2023-03-10T23:37:43.770Z,94804.16
2023-03-10T23:39:47.468Z,94801.53
2023-03-10T23:41:51.921Z,94750.22
2023-03-10T23:43:55.078Z,94798.66
2023-03-10T23:45:57.939Z,94809.91
2023-03-10T23:48:04.708Z,94806.88
2023-03-10T23:50:10.205Z,94816.28
2023-03-10T23:52:12.982Z,94706.63
2023-03-10T23:54:20.535Z,94795.75
2023-03-10T23:56:23.257Z,94817.69
2023-03-10T23:58:28.460Z,94803.59
